createdAt,value
2023-03-27T00:01:27.852Z,0.63
2023-03-27T00:03:55.905Z,0.77
2023-03-27T00:06:25.326Z,0.77
2023-03-27T00:08:52.902Z,0.73
2023-03-27T00:11:22.019Z,1.05
2023-03-27T00:13:51.403Z,0.77
2023-03-27T00:16:23.185Z,0.70
2023-03-27T00:18:50.194Z,0.80
2023-03-27T00:21:17.277Z,0.70
2023-03-27T00:23:44.276Z,0.60
2023-03-27T00:26:12.279Z,0.50
2023-03-27T00:28:39.351Z,0.73
2023-03-27T00:31:10.845Z,0.77
2023-03-27T00:33:38.006Z,0.70
2023-03-27T00:36:05.351Z,0.70
2023-03-27T00:38:33.949Z,0.77
2023-03-27T00:41:01.117Z,0.80
2023-03-27T00:43:34.180Z,1.13
2023-03-27T00:46:27.946Z,0.70
2023-03-27T00:48:55.807Z,0.75
2023-03-27T00:51:24.287Z,0.75
2023-03-27T00:53:51.518Z,0.73
2023-03-27T00:56:18.629Z,0.80
2023-03-27T00:58:58.627Z,0.75
2023-03-27T01:01:27.814Z,0.82
2023-03-27T01:03:56.296Z,0.75
2023-03-27T01:06:23.315Z,0.88
2023-03-27T01:08:51.103Z,0.70
2023-03-27T01:11:48.804Z,1.00
2023-03-27T01:14:37.994Z,0.77
2023-03-27T01:17:33.182Z,0.90
2023-03-27T01:20:20.390Z,0.90
2023-03-27T01:23:58.632Z,1.10
2023-03-27T01:26:42.234Z,0.95
2023-03-27T01:29:26.491Z,0.73
2023-03-27T01:32:33.368Z,0.85
2023-03-27T01:35:40.703Z,1.33
2023-03-27T01:38:42.364Z,0.80
2023-03-27T01:41:19.897Z,0.98
2023-03-27T01:43:56.583Z,0.70
2023-03-27T01:46:31.684Z,0.88
2023-03-27T01:49:05.754Z,1.00
2023-03-27T01:51:37.765Z,0.98
2023-03-27T01:54:12.217Z,0.75
2023-03-27T01:56:46.223Z,0.60
2023-03-27T01:59:16.675Z,0.70
2023-03-27T02:01:48.601Z,0.90
2023-03-27T02:04:19.949Z,1.05
2023-03-27T02:06:52.916Z,1.10
2023-03-27T02:09:26.949Z,1.23
2023-03-27T02:11:59.212Z,0.95
2023-03-27T02:14:31.165Z,1.02
2023-03-27T02:17:02.399Z,1.20
2023-03-27T02:19:33.640Z,1.02
2023-03-27T02:22:01.042Z,0.90
2023-03-27T02:24:28.942Z,1.00
2023-03-27T02:27:02.050Z,1.15
2023-03-27T02:29:54.137Z,1.45
2023-03-27T02:32:53.890Z,1.40
2023-03-27T02:35:45.266Z,1.40
2023-03-27T02:38:19.345Z,1.40
2023-03-27T02:41:16.326Z,1.60
2023-03-27T02:44:25.154Z,1.38
2023-03-27T02:47:25.014Z,1.67
2023-03-27T02:49:56.909Z,2.10
2023-03-27T02:52:28.464Z,1.73
2023-03-27T02:55:16.600Z,1.88
2023-03-27T02:57:52.203Z,1.55
2023-03-27T03:00:34.478Z,1.75
2023-03-27T03:05:55.291Z,1.48
2023-03-27T03:08:22.396Z,1.80
2023-03-27T03:10:49.849Z,2.10
2023-03-27T03:13:18.135Z,2.13
2023-03-27T03:15:50.642Z,2.35
2023-03-27T03:18:17.624Z,3.22
2023-03-27T03:20:46.131Z,3.33
2023-03-27T03:23:13.060Z,3.50
2023-03-27T03:25:39.889Z,3.22
2023-03-27T03:28:08.311Z,3.33
2023-03-27T03:30:39.043Z,3.10
2023-03-27T03:33:11.000Z,3.58
2023-03-27T03:35:38.907Z,3.45
2023-03-27T03:38:12.791Z,3.97
2023-03-27T03:40:45.842Z,4.13
2023-03-27T03:43:13.057Z,4.75
2023-03-27T03:45:39.948Z,3.95
2023-03-27T03:48:07.165Z,4.45
2023-03-27T03:50:33.999Z,4.30
2023-03-27T03:53:00.921Z,3.85
2023-03-27T03:55:27.804Z,4.45
2023-03-27T03:57:55.680Z,4.90
2023-03-27T04:00:25.859Z,5.07
2023-03-27T04:02:56.925Z,5.30
2023-03-27T04:05:24.472Z,6.28
2023-03-27T04:07:53.757Z,5.22
2023-03-27T04:10:41.647Z,5.15
2023-03-27T04:13:22.071Z,4.82
2023-03-27T04:16:02.022Z,4.50
2023-03-27T04:18:39.367Z,4.75
2023-03-27T04:21:16.096Z,4.68
2023-03-27T04:23:45.256Z,4.75
2023-03-27T04:26:16.227Z,4.40
2023-03-27T04:29:04.151Z,4.93
2023-03-27T04:31:51.523Z,5.45
2023-03-27T04:34:38.502Z,5.57
2023-03-27T04:37:09.706Z,3.88
2023-03-27T04:39:43.034Z,6.00
2023-03-27T04:42:10.687Z,6.40
2023-03-27T04:44:38.605Z,6.13
2023-03-27T04:47:08.783Z,4.93
2023-03-27T04:49:43.809Z,4.95
2023-03-27T04:52:19.215Z,4.82
2023-03-27T04:54:46.782Z,4.97
2023-03-27T04:57:15.821Z,5.10
2023-03-27T04:59:42.992Z,5.45
2023-03-27T05:02:31.253Z,5.30
2023-03-27T05:05:09.110Z,5.95
2023-03-27T05:07:37.685Z,5.28
2023-03-27T05:10:06.959Z,5.18
2023-03-27T05:12:34.858Z,5.28
2023-03-27T05:15:06.258Z,4.82
2023-03-27T05:17:41.300Z,5.50
2023-03-27T05:20:12.421Z,4.85
2023-03-27T05:22:40.092Z,5.10
2023-03-27T05:25:17.487Z,7.15
2023-03-27T05:27:49.094Z,9.60
2023-03-27T05:30:18.641Z,8.35
2023-03-27T05:32:49.090Z,7.73
2023-03-27T05:35:24.405Z,9.65
2023-03-27T05:37:54.786Z,7.32
2023-03-27T05:40:27.721Z,9.05
2023-03-27T05:42:56.347Z,8.52
2023-03-27T05:45:27.548Z,8.02
2023-03-27T05:47:59.950Z,7.35
2023-03-27T05:50:30.076Z,6.57
2023-03-27T05:53:01.229Z,5.97
2023-03-27T05:55:34.535Z,6.35
2023-03-27T05:58:01.869Z,6.15
2023-03-27T06:00:32.047Z,6.10
2023-03-27T06:03:01.127Z,6.57
2023-03-27T06:05:48.943Z,7.65
2023-03-27T06:08:17.049Z,11.60
2023-03-27T06:10:45.789Z,11.57
2023-03-27T06:13:21.741Z,11.40
2023-03-27T06:15:58.432Z,10.77
2023-03-27T06:18:45.506Z,10.30
2023-03-27T06:21:15.200Z,7.30
2023-03-27T06:23:42.706Z,8.88
2023-03-27T06:26:12.214Z,11.13
2023-03-27T06:28:39.396Z,10.85
2023-03-27T06:31:06.963Z,9.43
2023-03-27T06:33:40.734Z,7.13
2023-03-27T06:36:18.193Z,9.70
2023-03-27T06:38:47.861Z,9.50
2023-03-27T06:41:14.880Z,9.63
2023-03-27T06:44:01.728Z,3.42
2023-03-27T06:46:44.618Z,3.63
2023-03-27T06:49:32.228Z,3.38
2023-03-27T06:52:05.960Z,3.65
2023-03-27T06:54:32.837Z,5.93
2023-03-27T06:57:01.726Z,3.03
2023-03-27T06:59:37.156Z,2.13
2023-03-27T07:02:04.386Z,2.60
2023-03-27T07:05:03.770Z,1.45
2023-03-27T07:07:41.475Z,1.48
2023-03-27T07:10:10.665Z,1.33
2023-03-27T07:12:38.292Z,1.20
2023-03-27T07:15:07.986Z,1.63
2023-03-27T07:17:48.024Z,1.40
2023-03-27T07:20:18.558Z,1.23
2023-03-27T07:22:46.109Z,1.77
2023-03-27T07:25:27.101Z,1.60
2023-03-27T07:27:59.730Z,1.10
2023-03-27T07:32:54.591Z,1.30
2023-03-27T07:35:22.015Z,1.90
2023-03-27T07:38:09.841Z,1.50
2023-03-27T07:40:57.680Z,1.88
2023-03-27T07:43:44.441Z,1.60
2023-03-27T07:46:11.502Z,1.80
2023-03-27T07:48:39.212Z,1.60
2023-03-27T07:51:13.879Z,1.83
2023-03-27T07:53:43.698Z,1.60
2023-03-27T07:56:26.717Z,1.45
2023-03-27T07:59:13.739Z,1.67
2023-03-27T08:01:42.407Z,1.40
2023-03-27T08:04:09.409Z,1.20
2023-03-27T08:06:39.308Z,0.90
2023-03-27T08:09:13.336Z,1.15
2023-03-27T08:11:41.466Z,1.35
2023-03-27T08:14:09.946Z,1.40
2023-03-27T08:16:38.135Z,1.40
2023-03-27T08:19:06.358Z,1.13
2023-03-27T08:21:39.843Z,0.80
2023-03-27T08:24:07.464Z,0.90
2023-03-27T08:26:41.924Z,1.00
2023-03-27T08:29:12.256Z,1.00
2023-03-27T08:31:40.198Z,1.30
2023-03-27T08:34:07.314Z,1.10
2023-03-27T08:36:45.019Z,1.20
2023-03-27T08:39:12.975Z,1.40
2023-03-27T08:41:55.193Z,1.42
2023-03-27T08:44:30.074Z,0.80
2023-03-27T08:47:22.855Z,1.00
2023-03-27T08:49:58.705Z,0.80
2023-03-27T08:52:32.434Z,1.08
2023-03-27T08:55:10.791Z,1.15
2023-03-27T08:57:44.045Z,1.10
2023-03-27T09:00:25.673Z,1.20
2023-03-27T09:03:33.290Z,1.00
2023-03-27T09:06:11.663Z,0.90
2023-03-27T09:09:03.501Z,1.08
2023-03-27T09:11:40.748Z,1.20
2023-03-27T09:14:37.684Z,0.90
2023-03-27T09:17:14.943Z,0.70
2023-03-27T09:19:57.177Z,1.10
2023-03-27T09:22:37.567Z,0.93
2023-03-27T09:25:32.776Z,0.75
2023-03-27T09:28:21.666Z,0.73
2023-03-27T09:30:55.537Z,0.38
2023-03-27T09:33:27.925Z,0.50
2023-03-27T09:35:56.164Z,0.40
2023-03-27T09:38:28.383Z,0.60
2023-03-27T09:41:03.127Z,0.60
2023-03-27T09:43:54.667Z,0.90
2023-03-27T09:46:23.889Z,1.00
2023-03-27T09:49:00.630Z,0.77
2023-03-27T09:51:51.789Z,0.70
2023-03-27T09:54:51.262Z,0.50
2023-03-27T09:57:18.624Z,0.70
2023-03-27T09:59:59.285Z,0.70
2023-03-27T10:02:29.270Z,0.50
2023-03-27T10:05:12.255Z,1.98
2023-03-27T10:07:41.605Z,0.60
2023-03-27T10:10:32.623Z,0.50
2023-03-27T10:13:20.982Z,0.93
2023-03-27T10:16:02.236Z,1.35
2023-03-27T10:18:42.479Z,0.60
2023-03-27T10:21:34.438Z,1.20
2023-03-27T10:24:07.119Z,0.80
2023-03-27T10:26:54.371Z,1.65
2023-03-27T10:29:35.060Z,0.90
2023-03-27T10:32:05.300Z,0.70
2023-03-27T10:34:57.471Z,0.70
2023-03-27T10:37:50.141Z,0.40
2023-03-27T10:40:39.092Z,0.77
2023-03-27T10:43:16.772Z,0.40
2023-03-27T10:46:06.455Z,1.33
2023-03-27T10:49:17.342Z,1.40
2023-03-27T10:52:07.617Z,1.33
2023-03-27T10:55:30.587Z,1.23
2023-03-27T10:58:00.635Z,1.10
2023-03-27T11:00:38.158Z,1.38
2023-03-27T11:03:18.133Z,0.68
2023-03-27T11:05:48.841Z,0.40
2023-03-27T11:08:54.222Z,0.77
2023-03-27T11:11:31.023Z,0.40
2023-03-27T11:14:03.878Z,0.50
2023-03-27T11:16:39.388Z,0.80
2023-03-27T11:19:45.932Z,1.20
2023-03-27T11:23:12.552Z,1.00
2023-03-27T11:26:01.738Z,0.85
2023-03-27T11:28:41.320Z,2.78
2023-03-27T11:31:49.505Z,3.83
2023-03-27T11:34:57.843Z,1.85
2023-03-27T11:37:48.863Z,3.17
2023-03-27T11:40:26.957Z,0.90
2023-03-27T11:43:01.491Z,0.90
2023-03-27T11:45:41.228Z,1.90
2023-03-27T11:48:48.070Z,1.00
2023-03-27T11:51:32.025Z,0.93
2023-03-27T11:54:09.738Z,0.90
2023-03-27T11:56:58.132Z,0.90
2023-03-27T12:00:04.828Z,0.47
2023-03-27T12:02:59.727Z,1.15
2023-03-27T12:06:07.513Z,2.95
2023-03-27T12:09:07.373Z,0.90
2023-03-27T12:12:13.642Z,1.75
2023-03-27T12:15:15.684Z,0.52
2023-03-27T12:17:51.629Z,0.40
2023-03-27T12:20:51.916Z,0.70
2023-03-27T12:23:43.191Z,1.00
2023-03-27T12:27:12.906Z,0.93
2023-03-27T12:30:07.766Z,0.63
2023-03-27T12:32:55.376Z,0.65
2023-03-27T12:35:24.827Z,1.20
2023-03-27T12:38:02.304Z,1.25
2023-03-27T12:40:39.273Z,1.40
2023-03-27T12:43:31.748Z,1.90
2023-03-27T12:46:37.543Z,1.83
2023-03-27T12:49:47.973Z,0.82
2023-03-27T12:52:27.042Z,1.70
2023-03-27T12:55:33.823Z,1.38
2023-03-27T12:58:32.448Z,0.60
2023-03-27T13:01:52.904Z,0.40
2023-03-27T13:05:08.681Z,0.65
2023-03-27T13:08:11.094Z,2.60
2023-03-27T13:11:14.682Z,1.88
2023-03-27T13:14:21.578Z,2.55
2023-03-27T13:16:58.830Z,1.40
2023-03-27T13:19:58.567Z,0.85
2023-03-27T13:22:56.919Z,0.70
2023-03-27T13:25:33.078Z,0.52
2023-03-27T13:28:34.496Z,0.80
2023-03-27T13:31:12.393Z,2.17
2023-03-27T13:34:32.883Z,4.68
2023-03-27T13:37:43.146Z,2.00
2023-03-27T13:40:31.179Z,0.52
2023-03-27T13:43:25.352Z,2.17
2023-03-27T13:46:01.480Z,1.08
2023-03-27T13:49:19.435Z,0.73
2023-03-27T13:52:26.387Z,0.80
2023-03-27T13:55:14.189Z,1.20
2023-03-27T13:58:38.645Z,0.60
2023-03-27T14:01:45.603Z,0.50
2023-03-27T14:04:43.766Z,0.38
2023-03-27T14:07:46.616Z,1.00
2023-03-27T14:10:56.733Z,0.57
2023-03-27T14:13:45.636Z,0.20
2023-03-27T14:16:40.942Z,0.50
2023-03-27T14:19:49.131Z,0.77
2023-03-27T14:25:02.779Z,0.70
2023-03-27T14:27:36.704Z,0.75
2023-03-27T14:30:07.559Z,0.45
2023-03-27T14:32:37.269Z,0.38
2023-03-27T14:35:06.213Z,0.50
2023-03-27T14:37:42.016Z,0.47
2023-03-27T14:40:35.285Z,0.45
2023-03-27T14:43:07.247Z,0.57
2023-03-27T14:45:39.418Z,0.60
2023-03-27T14:48:34.525Z,0.88
2023-03-27T14:51:05.554Z,0.70
2023-03-27T14:53:44.650Z,2.95
2023-03-27T14:56:37.467Z,1.10
2023-03-27T14:59:27.296Z,1.08
2023-03-27T15:01:59.550Z,0.80
2023-03-27T15:04:30.234Z,0.57
2023-03-27T15:07:19.816Z,0.82
2023-03-27T15:10:26.393Z,0.68
2023-03-27T15:13:13.256Z,0.82
2023-03-27T15:15:47.540Z,0.77
2023-03-27T15:18:30.971Z,1.02
2023-03-27T15:21:04.277Z,0.80
2023-03-27T15:23:52.487Z,1.85
2023-03-27T15:29:48.596Z,2.28
2023-03-27T15:32:18.961Z,0.80
2023-03-27T15:34:51.278Z,1.63
2023-03-27T15:37:23.390Z,2.20
2023-03-27T15:43:00.995Z,1.77
2023-03-27T15:45:39.988Z,0.68
2023-03-27T15:48:18.995Z,0.52
2023-03-27T15:51:07.575Z,0.68
2023-03-27T15:53:46.659Z,1.13
2023-03-27T15:56:21.973Z,0.73
2023-03-27T15:58:53.729Z,2.40
2023-03-27T16:03:54.355Z,2.15
2023-03-27T16:06:36.719Z,1.70
2023-03-27T16:09:10.157Z,1.35
2023-03-27T16:11:43.758Z,1.15
2023-03-27T16:14:21.664Z,1.88
2023-03-27T16:16:49.851Z,3.50
2023-03-27T16:19:16.704Z,1.75
2023-03-27T16:22:03.457Z,1.50
2023-03-27T16:24:30.623Z,2.10
2023-03-27T16:26:57.558Z,1.90
2023-03-27T16:29:24.919Z,1.02
2023-03-27T16:31:51.794Z,2.17
2023-03-27T16:34:23.219Z,3.38
2023-03-27T16:39:17.379Z,1.80
2023-03-27T16:41:44.373Z,3.00
2023-03-27T16:44:11.225Z,3.63
2023-03-27T16:46:38.114Z,5.60
2023-03-27T16:49:05.562Z,3.70
2023-03-27T16:51:44.382Z,3.00
2023-03-27T16:54:11.927Z,4.95
2023-03-27T16:56:39.458Z,5.63
2023-03-27T16:59:06.597Z,4.57
2023-03-27T17:01:33.446Z,2.25
2023-03-27T17:04:01.359Z,3.10
2023-03-27T17:06:42.079Z,2.53
2023-03-27T17:09:14.229Z,3.70
2023-03-27T17:11:43.750Z,3.70
2023-03-27T17:14:12.965Z,6.32
2023-03-27T17:16:42.228Z,4.53
2023-03-27T17:19:11.047Z,2.70
2023-03-27T17:21:39.681Z,3.50
2023-03-27T17:24:11.435Z,4.50
2023-03-27T17:29:08.477Z,6.60
2023-03-27T17:31:35.493Z,7.78
2023-03-27T17:34:02.474Z,7.47
2023-03-27T17:36:40.228Z,7.78
2023-03-27T17:39:10.388Z,8.90
2023-03-27T17:41:37.138Z,8.18
2023-03-27T17:44:05.634Z,10.00
2023-03-27T17:46:34.769Z,11.68
2023-03-27T17:49:02.042Z,9.57
2023-03-27T17:51:28.986Z,7.50
2023-03-27T17:53:55.910Z,10.00
2023-03-27T17:56:23.037Z,4.63
2023-03-27T17:58:50.331Z,8.48
2023-03-27T18:01:19.745Z,6.45
2023-03-27T18:03:46.965Z,7.68
2023-03-27T18:06:17.405Z,6.10
2023-03-27T18:08:45.208Z,6.22
2023-03-27T18:11:13.712Z,6.18
2023-03-27T18:13:41.367Z,8.18
2023-03-27T18:16:10.908Z,11.50
2023-03-27T18:18:39.100Z,11.38
2023-03-27T18:21:08.008Z,13.57
2023-03-27T18:23:35.190Z,14.20
2023-03-27T18:26:06.526Z,13.93
2023-03-27T18:28:34.211Z,12.40
2023-03-27T18:31:03.493Z,11.13
2023-03-27T18:33:30.760Z,12.50
2023-03-27T18:35:58.003Z,11.57
2023-03-27T18:38:25.838Z,13.77
2023-03-27T18:40:55.662Z,11.70
2023-03-27T18:43:23.463Z,28.88
2023-03-27T18:45:58.910Z,34.25
2023-03-27T18:48:26.783Z,27.70
2023-03-27T18:51:04.643Z,20.08
2023-03-27T18:53:31.784Z,15.50
2023-03-27T18:55:59.302Z,12.18
2023-03-27T18:58:27.859Z,10.02
2023-03-27T19:00:57.609Z,10.70
2023-03-27T19:03:35.275Z,10.57
2023-03-27T19:06:06.705Z,10.40
2023-03-27T19:08:38.138Z,10.80
2023-03-27T19:11:06.193Z,12.85
2023-03-27T19:13:54.539Z,13.98
2023-03-27T19:16:33.523Z,13.52
2023-03-27T19:19:27.895Z,16.17
2023-03-27T19:22:16.189Z,21.13
2023-03-27T19:24:49.390Z,21.63
2023-03-27T19:27:23.460Z,23.85
2023-03-27T19:29:55.459Z,23.67
2023-03-27T19:32:24.578Z,23.50
2023-03-27T19:34:51.801Z,23.90
2023-03-27T19:37:21.951Z,21.85
2023-03-27T19:39:52.494Z,21.08
2023-03-27T19:42:21.301Z,24.38
2023-03-27T19:44:51.035Z,25.35
2023-03-27T19:47:18.554Z,27.90
2023-03-27T19:49:46.495Z,26.67
2023-03-27T19:52:31.086Z,63.95
2023-03-27T19:55:02.139Z,92.10
2023-03-27T19:57:31.577Z,82.03
2023-03-27T19:59:58.824Z,72.03
2023-03-27T20:02:29.196Z,56.72
2023-03-27T20:05:00.659Z,33.38
2023-03-27T20:07:30.058Z,30.00
2023-03-27T20:09:56.926Z,28.73
2023-03-27T20:12:24.976Z,26.60
2023-03-27T20:15:02.978Z,25.73
2023-03-27T20:17:37.292Z,24.35
2023-03-27T20:20:06.262Z,24.75
2023-03-27T20:22:36.598Z,23.90
2023-03-27T20:25:10.303Z,25.15
2023-03-27T20:27:38.795Z,22.05
2023-03-27T20:30:37.559Z,21.25
2023-03-27T20:33:05.559Z,18.58
2023-03-27T20:35:33.715Z,18.48
2023-03-27T20:38:04.621Z,16.60
2023-03-27T20:40:52.858Z,16.73
2023-03-27T20:43:27.058Z,16.67
2023-03-27T20:45:55.081Z,18.75
2023-03-27T20:48:22.181Z,19.77
2023-03-27T20:50:55.465Z,21.52
2023-03-27T20:53:26.300Z,23.17
2023-03-27T20:56:00.031Z,25.30
2023-03-27T20:58:28.114Z,35.70
2023-03-27T21:00:56.198Z,45.83
2023-03-27T21:03:23.309Z,38.67
2023-03-27T21:05:50.620Z,33.70
2023-03-27T21:08:17.491Z,33.08
2023-03-27T21:10:52.474Z,36.38
2023-03-27T21:13:19.411Z,38.72
2023-03-27T21:15:46.281Z,36.05
2023-03-27T21:18:13.171Z,29.90
2023-03-27T21:20:39.959Z,25.75
2023-03-27T21:23:06.750Z,23.08
2023-03-27T21:25:34.601Z,22.88
2023-03-27T21:28:06.004Z,28.20
2023-03-27T21:30:46.801Z,26.10
2023-03-27T21:33:16.185Z,24.88
2023-03-27T21:35:46.156Z,25.73
2023-03-27T21:38:14.318Z,27.95
2023-03-27T21:40:41.293Z,25.77
2023-03-27T21:43:09.099Z,25.90
2023-03-27T21:45:36.540Z,23.92
2023-03-27T21:48:03.905Z,23.88
2023-03-27T21:50:30.815Z,22.50
2023-03-27T21:52:57.713Z,23.10
2023-03-27T21:55:24.537Z,23.65
2023-03-27T21:57:52.346Z,23.58
2023-03-27T22:00:20.187Z,24.38
2023-03-27T22:02:47.161Z,23.80
2023-03-27T22:05:14.144Z,24.63
2023-03-27T22:07:41.053Z,21.88
2023-03-27T22:10:08.387Z,22.05
2023-03-27T22:12:36.389Z,23.25
2023-03-27T22:15:04.486Z,25.42
2023-03-27T22:17:31.471Z,26.33
2023-03-27T22:19:59.205Z,26.35
2023-03-27T22:22:26.194Z,27.52
2023-03-27T22:24:53.018Z,25.67
2023-03-27T22:27:19.836Z,23.77
2023-03-27T22:29:46.668Z,22.15
2023-03-27T22:32:13.490Z,20.25
2023-03-27T22:34:40.418Z,20.50
2023-03-27T22:37:07.432Z,21.15
2023-03-27T22:39:34.297Z,20.63
2023-03-27T22:42:01.346Z,18.77
2023-03-27T22:44:30.859Z,18.48
2023-03-27T22:46:58.932Z,18.92
2023-03-27T22:49:26.328Z,17.13
2023-03-27T22:51:53.139Z,16.50
2023-03-27T22:54:20.331Z,16.67
2023-03-27T22:56:47.887Z,16.02
2023-03-27T22:59:15.664Z,17.02
2023-03-27T23:01:42.628Z,18.17
2023-03-27T23:04:09.593Z,14.77
2023-03-27T23:06:36.416Z,13.07
2023-03-27T23:09:03.207Z,10.90
2023-03-27T23:11:30.532Z,8.60
2023-03-27T23:13:57.289Z,6.75
2023-03-27T23:16:24.286Z,7.13
2023-03-27T23:18:51.059Z,6.72
2023-03-27T23:21:18.271Z,6.22
2023-03-27T23:23:45.394Z,7.50
2023-03-27T23:26:12.900Z,8.50
2023-03-27T23:28:41.354Z,8.75
2023-03-27T23:31:12.484Z,8.02
2023-03-27T23:33:41.299Z,7.18
2023-03-27T23:36:11.379Z,7.00
2023-03-27T23:38:38.966Z,6.93
2023-03-27T23:41:07.144Z,5.93
2023-03-27T23:43:34.568Z,6.32
2023-03-27T23:46:01.838Z,6.20
2023-03-27T23:48:29.700Z,7.68
2023-03-27T23:50:57.240Z,8.02
2023-03-27T23:53:25.822Z,7.60
2023-03-27T23:55:53.552Z,8.10
2023-03-27T23:58:20.350Z,7.72
